Time;durP1;ratioP1;P1;durP2;ratioP2;P2;SDS_P1;SDS_P2;PMS_P1;PMS_P2;Temp;Humidity;BMP_temperature;BMP_pressure;BME280_temperature;BME280_humidity;BME280_pressure;Samples;Min_cycle;Max_cycle;Signal;HPM_P1;HPM_P2
2024/01/19 00:00:27;;;;;;;;;;;;;;;-144.99;100.00;52631.53;4962560;28;19930;-80
2024/01/19 00:02:53;;;;;;;;;;;;;;;-144.99;100.00;52641.72;4968158;28;20013;-79
2024/01/19 00:05:20;;;;;;;;;;;;;;;-144.99;100.00;52696.78;4970615;28;20383;-77
2024/01/19 00:07:47;;;;;;;;;;;;;;;-144.99;100.00;52647.84;4966744;28;19985;-79
2024/01/19 00:10:14;;;;;;;;;;;;;;;-144.99;100.00;52688.63;4625383;28;10000424;-82
2024/01/19 00:12:40;;;;;;;;;;;;;;;-144.99;100.00;52672.31;4969213;28;19984;-80
2024/01/19 00:15:07;;;;;;;;;;;;;;;-144.99;100.00;52633.59;4968160;28;19930;-80
2024/01/19 00:17:34;;;;;;;;;;;;;;;-144.99;100.00;52643.78;4965594;28;19926;-78
2024/01/19 00:20:00;;;;;;;;;;;;;;;-144.99;100.00;52635.63;4966635;28;19972;-78
2024/01/19 00:22:26;;;;;;;;;;;;;;;-144.99;100.00;52656.00;4970443;28;19926;-76
2024/01/19 00:24:54;;;;;;;;;;;;;;;-144.99;100.00;52694.72;4968262;28;20024;-77
2024/01/19 00:27:21;;;;;;;;;;;;;;;-144.99;100.00;52615.25;4961799;28;20321;-79
2024/01/19 00:29:47;;;;;;;;;;;;;;;-144.99;100.00;52643.78;4967360;28;20097;-76
2024/01/19 00:32:13;;;;;;;;;;;;;;;-144.99;100.00;52651.94;4969773;28;20109;-79
2024/01/19 00:34:40;;;;;;;;;;;;;;;-144.99;100.00;52635.63;4965411;28;20033;-76
2024/01/19 00:37:07;;;;;;;;;;;;;;;-144.99;100.00;52643.78;4962046;28;20317;-79
2024/01/19 00:39:33;;;;;;;;;;;;;;;-144.99;100.00;52647.84;4970818;28;20364;-77
2024/01/19 00:42:01;;;;;;;;;;;;;;;-144.99;100.00;52615.25;4970013;28;20013;-78
2024/01/19 00:44:28;;;;;;;;;;;;;;;-144.99;100.00;52607.09;4966727;28;19927;-78
2024/01/19 00:46:55;;;;;;;;;;;;;;;-144.99;100.00;52639.69;4973149;28;19930;-77
2024/01/19 00:49:21;;;;;;;;;;;;;;;-144.99;100.00;52623.38;4972416;28;20065;-79
2024/01/19 00:51:48;;;;;;;;;;;;;;;-144.99;100.00;52656.00;4971242;28;19926;-79
2024/01/19 00:54:15;;;;;;;;;;;;;;;-144.99;100.00;52637.66;4973785;28;19930;-79
2024/01/19 00:56:41;;;;;;;;;;;;;;;-144.99;100.00;52611.16;4970801;28;19930;-77
2024/01/19 00:59:09;;;;;;;;;;;;;;;-144.99;100.00;52611.16;4980477;28;20314;-77
2024/01/19 01:01:35;;;;;;;;;;;;;;;-144.99;100.00;52658.03;4970394;28;19933;-76
2024/01/19 01:04:02;;;;;;;;;;;;;;;-144.99;100.00;52682.50;4969772;28;20433;-77
2024/01/19 01:06:29;;;;;;;;;;;;;;;-144.99;100.00;52635.63;4962937;28;19988;-77
2024/01/19 01:08:55;;;;;;;;;;;;;;;-144.99;100.00;52647.84;4972326;28;20021;-75
2024/01/19 01:11:22;;;;;;;;;;;;;;;-144.99;100.00;52621.34;4972569;28;20302;-75
2024/01/19 01:13:48;;;;;;;;;;;;;;;-144.99;100.00;52660.09;4971566;28;19934;-76
2024/01/19 01:16:16;;;;;;;;;;;;;;;-144.99;100.00;52651.94;4972131;28;19982;-77
2024/01/19 01:18:43;;;;;;;;;;;;;;;-144.99;100.00;52656.00;4972792;28;20009;-78
2024/01/19 01:21:09;;;;;;;;;;;;;;;-144.99;100.00;52611.16;4971219;28;19930;-76
2024/01/19 01:23:36;;;;;;;;;;;;;;;-144.99;100.00;52647.84;4971772;28;19966;-78
2024/01/19 01:26:02;;;;;;;;;;;;;;;-144.99;100.00;52611.16;4968959;28;20201;-77
2024/01/19 01:28:29;;;;;;;;;;;;;;;-144.99;100.00;52676.38;4973174;28;20309;-75
2024/01/19 01:30:55;;;;;;;;;;;;;;;-144.99;100.00;52615.25;4967620;28;20435;-76
2024/01/19 01:33:23;;;;;;;;;;;;;;;-144.99;100.00;52670.28;4971424;28;19936;-76
2024/01/19 01:35:49;;;;;;;;;;;;;;;-144.99;100.00;52619.31;4969968;28;19941;-76
2024/01/19 01:38:16;;;;;;;;;;;;;;;-144.99;100.00;52629.50;4973371;28;20027;-76
2024/01/19 01:40:42;;;;;;;;;;;;;;;-144.99;100.00;52639.69;4965231;28;19926;-75
2024/01/19 01:43:09;;;;;;;;;;;;;;;-144.99;100.00;52672.31;4965568;28;20013;-78
2024/01/19 01:45:35;;;;;;;;;;;;;;;-144.99;100.00;52668.22;4971098;28;19926;-76
2024/01/19 01:48:02;;;;;;;;;;;;;;;-144.99;100.00;52619.31;4973328;28;19977;-77
2024/01/19 01:50:29;;;;;;;;;;;;;;;-144.99;100.00;52635.63;4973094;28;19926;-78
2024/01/19 01:52:56;;;;;;;;;;;;;;;-144.99;100.00;52660.09;4964467;28;20394;-77
2024/01/19 01:55:22;;;;;;;;;;;;;;;-144.99;100.00;52676.38;4964543;28;20036;-77
2024/01/19 01:57:49;;;;;;;;;;;;;;;-144.99;100.00;52639.69;4979735;28;19926;-78
2024/01/19 02:00:17;;;;;;;;;;;;;;;-144.99;100.00;52664.16;4970862;28;19929;-76
2024/01/19 02:02:44;;;;;;;;;;;;;;;-144.99;100.00;52676.38;4970654;28;19973;-73
2024/01/19 02:05:10;;;;;;;;;;;;;;;-144.99;100.00;52678.44;4968290;28;19965;-75
2024/01/19 02:07:38;;;;;;;;;;;;;;;-144.99;100.00;52656.00;4968426;28;19963;-76
2024/01/19 02:10:05;;;;;;;;;;;;;;;-144.99;100.00;52651.94;4971024;28;19969;-75
2024/01/19 02:12:32;;;;;;;;;;;;;;;-144.99;100.00;52627.47;4969401;28;19926;-77
2024/01/19 02:14:59;;;;;;;;;;;;;;;-144.99;100.00;52631.53;4966870;28;19996;-77
2024/01/19 02:17:26;;;;;;;;;;;;;;;-144.99;100.00;52615.25;4967826;28;19926;-76
2024/01/19 02:19:52;;;;;;;;;;;;;;;-144.99;100.00;52615.25;4968130;28;19980;-75
2024/01/19 02:22:19;;;;;;;;;;;;;;;-144.99;100.00;52635.63;4971987;28;20439;-73
2024/01/19 02:24:47;;;;;;;;;;;;;;;-144.99;100.00;52647.84;4964006;28;20280;-77
2024/01/19 02:27:15;;;;;;;;;;;;;;;-144.99;100.00;52594.84;4965584;28;20376;-74
2024/01/19 02:29:48;;;;;;;;;;;;;;;-144.99;100.00;52664.16;4968306;28;19931;-75
2024/01/19 02:32:14;;;;;;;;;;;;;;;-144.99;100.00;52684.53;4955109;28;20018;-74
2024/01/19 02:34:41;;;;;;;;;;;;;;;-144.99;100.00;52627.47;4968439;28;20258;-76
2024/01/19 02:37:07;;;;;;;;;;;;;;;-144.99;100.00;52619.31;4971164;28;20392;-78
2024/01/19 02:39:34;;;;;;;;;;;;;;;-144.99;100.00;52658.03;4970866;28;20021;-75
2024/01/19 02:42:01;;;;;;;;;;;;;;;-144.99;100.00;52651.94;4971537;28;19948;-74
2024/01/19 02:44:28;;;;;;;;;;;;;;;-144.99;100.00;52656.00;4970887;28;19997;-76
2024/01/19 02:46:54;;;;;;;;;;;;;;;-144.99;100.00;52635.63;4971198;28;19930;-74
2024/01/19 02:49:21;;;;;;;;;;;;;;;-144.99;100.00;52674.34;4969916;28;20341;-70
2024/01/19 02:51:47;;;;;;;;;;;;;;;-144.99;100.00;52676.38;4970521;28;20029;-75
2024/01/19 02:54:13;;;;;;;;;;;;;;;-144.99;100.00;52658.03;4971414;28;20020;-78
2024/01/19 02:56:40;;;;;;;;;;;;;;;-144.99;100.00;52627.47;4970260;28;20018;-75
2024/01/19 02:59:08;;;;;;;;;;;;;;;-144.99;100.00;52619.31;4975160;28;20493;-76
2024/01/19 03:01:35;;;;;;;;;;;;;;;-144.99;100.00;52600.97;4968907;28;19941;-75
2024/01/19 03:04:02;;;;;;;;;;;;;;;-144.99;100.00;52631.53;4970202;28;20135;-75
2024/01/19 03:06:29;;;;;;;;;;;;;;;-144.99;100.00;52590.78;4968037;28;21064;-76
2024/01/19 03:08:55;;;;;;;;;;;;;;;-144.99;100.00;52639.69;4971194;28;19973;-75
2024/01/19 03:11:21;;;;;;;;;;;;;;;-144.99;100.00;52627.47;4970621;28;19970;-73
2024/01/19 03:13:50;;;;;;;;;;;;;;;-144.99;100.00;52643.78;4970792;28;19963;-77
2024/01/19 03:16:18;;;;;;;;;;;;;;;-144.99;100.00;52625.44;4969514;28;19929;-77
2024/01/19 03:18:44;;;;;;;;;;;;;;;-144.99;100.00;52594.84;4968621;28;19996;-74
2024/01/19 03:21:11;;;;;;;;;;;;;;;-144.99;100.00;52627.47;4970678;28;19966;-76
2024/01/19 03:23:38;;;;;;;;;;;;;;;-144.99;100.00;52627.47;4966958;28;19933;-77
2024/01/19 03:26:05;;;;;;;;;;;;;;;-144.99;100.00;52635.63;4967727;28;20012;-78
2024/01/19 03:28:31;;;;;;;;;;;;;;;-144.99;100.00;52635.63;4962171;28;20017;-75
2024/01/19 03:30:58;;;;;;;;;;;;;;;-144.99;100.00;52615.25;4970120;28;19926;-75
2024/01/19 03:33:26;;;;;;;;;;;;;;;-144.99;100.00;52594.84;4970987;28;20001;-77
2024/01/19 03:35:52;;;;;;;;;;;;;;;-144.99;100.00;52598.94;4970388;28;19936;-76
2024/01/19 03:38:19;;;;;;;;;;;;;;;-144.99;100.00;52592.81;4968893;28;19973;-77
2024/01/19 03:40:47;;;;;;;;;;;;;;;-144.99;100.00;52586.69;4968384;28;19926;-76
2024/01/19 03:43:13;;;;;;;;;;;;;;;-144.99;100.00;52594.84;4970640;28;20029;-75
2024/01/19 03:45:40;;;;;;;;;;;;;;;-144.99;100.00;52603.00;4971072;28;19938;-75
2024/01/19 03:48:06;;;;;;;;;;;;;;;-144.99;100.00;52611.16;4971041;28;19933;-75
2024/01/19 03:50:34;;;;;;;;;;;;;;;-144.99;100.00;52611.16;4968462;28;20425;-74
2024/01/19 03:53:00;;;;;;;;;;;;;;;-144.99;100.00;52623.38;4971821;28;20154;-75
2024/01/19 03:55:27;;;;;;;;;;;;;;;-144.99;100.00;52635.63;4969534;28;20373;-75
2024/01/19 03:57:53;;;;;;;;;;;;;;;-144.99;100.00;52613.19;4969422;28;19965;-77
2024/01/19 04:00:20;;;;;;;;;;;;;;;-144.99;100.00;52609.13;4967008;28;19973;-76
2024/01/19 04:02:46;;;;;;;;;;;;;;;-144.99;100.00;52623.38;4967469;28;19937;-79
2024/01/19 04:05:13;;;;;;;;;;;;;;;-144.99;100.00;52611.16;4967758;28;20025;-76
2024/01/19 04:07:40;;;;;;;;;;;;;;;-144.99;100.00;52643.78;4966856;28;19926;-76
2024/01/19 04:10:07;;;;;;;;;;;;;;;-144.99;100.00;52615.25;4962601;28;19927;-75
2024/01/19 04:12:34;;;;;;;;;;;;;;;-144.99;100.00;52631.53;4968727;28;19926;-75
2024/01/19 04:15:00;;;;;;;;;;;;;;;-144.99;100.00;52609.13;4970765;28;19926;-75
2024/01/19 04:17:27;;;;;;;;;;;;;;;-144.99;100.00;52603.00;4972724;28;19926;-75
2024/01/19 04:19:53;;;;;;;;;;;;;;;-144.99;100.00;52578.53;4975753;28;20025;-74
2024/01/19 04:22:19;;;;;;;;;;;;;;;-144.99;100.00;52647.84;4973722;28;20390;-75
2024/01/19 04:24:47;;;;;;;;;;;;;;;-144.99;100.00;52619.31;4974463;28;19973;-74
2024/01/19 04:27:14;;;;;;;;;;;;;;;-144.99;100.00;52613.19;4962012;28;19968;-78
2024/01/19 04:29:40;;;;;;;;;;;;;;;-144.99;100.00;52607.09;4967028;28;19965;-76
2024/01/19 04:32:05;;;;;;;;;;;;;;;-144.99;100.00;52658.03;4973776;28;19926;-76
2024/01/19 04:34:32;;;;;;;;;;;;;;;-144.99;100.00;52590.78;4970125;28;20033;-76
2024/01/19 04:36:59;;;;;;;;;;;;;;;-144.99;100.00;52574.47;4973613;28;20013;-77
2024/01/19 04:39:25;;;;;;;;;;;;;;;-144.99;100.00;52619.31;4970231;28;19933;-77
2024/01/19 04:41:53;;;;;;;;;;;;;;;-144.99;100.00;52635.63;4972403;28;19972;-77
2024/01/19 04:44:19;;;;;;;;;;;;;;;-144.99;100.00;52594.84;4967100;28;19930;-77
2024/01/19 04:46:46;;;;;;;;;;;;;;;-144.99;100.00;52607.09;4970851;28;20029;-73
2024/01/19 04:49:12;;;;;;;;;;;;;;;-144.99;100.00;52623.38;4972396;28;19965;-74
2024/01/19 04:51:38;;;;;;;;;;;;;;;-144.99;100.00;52627.47;4971752;28;20014;-73
2024/01/19 04:54:05;;;;;;;;;;;;;;;-144.99;100.00;52633.59;4974170;28;19926;-74
2024/01/19 04:56:33;;;;;;;;;;;;;;;-144.99;100.00;52611.16;4966383;28;20314;-73
2024/01/19 04:59:01;;;;;;;;;;;;;;;-144.99;100.00;52603.00;4974162;28;19937;-73
2024/01/19 05:01:27;;;;;;;;;;;;;;;-144.99;100.00;52598.94;4972221;28;19930;-73
2024/01/19 05:03:52;;;;;;;;;;;;;;;-144.99;100.00;52574.47;4972706;28;20048;-73
2024/01/19 05:06:19;;;;;;;;;;;;;;;-144.99;100.00;52621.34;4972636;28;19969;-75
2024/01/19 05:08:45;;;;;;;;;;;;;;;-144.99;100.00;52623.38;4972838;28;20022;-76
2024/01/19 05:11:13;;;;;;;;;;;;;;;-144.99;100.00;52570.38;4970710;28;19997;-76
2024/01/19 05:13:40;;;;;;;;;;;;;;;-144.99;100.00;52615.25;4971479;28;20366;-74
2024/01/19 05:16:08;;;;;;;;;;;;;;;-144.99;100.00;52594.84;4970253;28;20029;-75
2024/01/19 05:18:34;;;;;;;;;;;;;;;-144.99;100.00;52598.94;4970249;28;20016;-75
2024/01/19 05:21:01;;;;;;;;;;;;;;;-144.99;100.00;52621.34;4970635;28;19962;-73
2024/01/19 05:23:28;;;;;;;;;;;;;;;-144.99;100.00;52603.00;4969605;28;19965;-75
2024/01/19 05:25:54;;;;;;;;;;;;;;;-144.99;100.00;52631.53;4969242;28;20033;-78
2024/01/19 05:28:21;;;;;;;;;;;;;;;-144.99;100.00;52590.78;4973047;28;20263;-72
2024/01/19 05:30:48;;;;;;;;;;;;;;;-144.99;100.00;52603.00;4964120;28;19941;-73
2024/01/19 05:33:16;;;;;;;;;;;;;;;-144.99;100.00;52603.00;4969428;28;19937;-74
2024/01/19 05:35:42;;;;;;;;;;;;;;;-144.99;100.00;52615.25;4972361;28;20598;-73
2024/01/19 05:38:09;;;;;;;;;;;;;;;-144.99;100.00;52615.25;4972327;28;19968;-73
2024/01/19 05:40:35;;;;;;;;;;;;;;;-144.99;100.00;52590.78;4972113;28;20040;-76
2024/01/19 05:43:01;;;;;;;;;;;;;;;-144.99;100.00;52596.88;4971711;28;20000;-74
2024/01/19 05:45:28;;;;;;;;;;;;;;;-144.99;100.00;52588.75;4970754;28;19926;-73
2024/01/19 05:47:54;;;;;;;;;;;;;;;-144.99;100.00;52619.31;4972316;28;20016;-75
2024/01/19 05:50:22;;;;;;;;;;;;;;;-144.99;100.00;52607.09;4973036;28;19930;-77
2024/01/19 05:52:48;;;;;;;;;;;;;;;-144.99;100.00;52660.09;4973206;28;20037;-75
2024/01/19 05:55:15;;;;;;;;;;;;;;;-144.99;100.00;52611.16;4970834;28;19926;-76
2024/01/19 05:57:41;;;;;;;;;;;;;;;-144.99;100.00;52635.63;4973193;28;20006;-74
2024/01/19 06:00:08;;;;;;;;;;;;;;;-144.99;100.00;52598.94;4969728;28;20432;-76
2024/01/19 06:02:35;;;;;;;;;;;;;;;-144.99;100.00;52647.84;4968516;28;20425;-75
2024/01/19 06:05:01;;;;;;;;;;;;;;;-144.99;100.00;52603.00;4970614;28;19930;-73
2024/01/19 06:07:32;;;;;;;;;;;;;;;-144.99;100.00;52627.47;4971393;28;19977;-75
2024/01/19 06:09:58;;;;;;;;;;;;;;;-144.99;100.00;52590.78;4972378;28;19961;-77
2024/01/19 06:12:25;;;;;;;;;;;;;;;-144.99;100.00;52594.84;4971567;28;19997;-75
2024/01/19 06:14:51;;;;;;;;;;;;;;;-144.99;100.00;52615.25;4971169;28;19930;-77
2024/01/19 06:17:17;;;;;;;;;;;;;;;-144.99;100.00;52631.53;4971000;28;19930;-74
2024/01/19 06:19:44;;;;;;;;;;;;;;;-144.99;100.00;52572.44;4970750;28;20021;-71
2024/01/19 06:22:10;;;;;;;;;;;;;;;-144.99;100.00;52594.84;4970782;28;20021;-74
2024/01/19 06:24:38;;;;;;;;;;;;;;;-144.99;100.00;52615.25;4968770;28;19937;-76
2024/01/19 06:27:05;;;;;;;;;;;;;;;-144.99;100.00;52607.09;4963022;28;20032;-74
2024/01/19 06:29:31;;;;;;;;;;;;;;;-144.99;100.00;52649.88;4970631;28;20008;-74
2024/01/19 06:32:06;;;;;;;;;;;;;;;-144.99;100.00;52570.38;4907675;28;9999646;-76
2024/01/19 06:34:36;;;;;;;;;;;;;;;-144.99;100.00;52623.38;4957706;28;19934;-76
2024/01/19 06:37:02;;;;;;;;;;;;;;;-144.99;100.00;52651.94;4963729;28;19934;-75
2024/01/19 06:39:29;;;;;;;;;;;;;;;-144.99;100.00;52611.16;4964980;28;19959;-75
2024/01/19 06:41:57;;;;;;;;;;;;;;;-144.99;100.00;52631.53;4966734;28;19934;-76
2024/01/19 06:44:23;;;;;;;;;;;;;;;-144.99;100.00;52598.94;4967065;28;20354;-77
2024/01/19 06:46:49;;;;;;;;;;;;;;;-144.99;100.00;52603.00;4964070;28;20008;-77
2024/01/19 06:49:16;;;;;;;;;;;;;;;-144.99;100.00;52635.63;4965147;28;20008;-77
2024/01/19 06:51:42;;;;;;;;;;;;;;;-144.99;100.00;52619.31;4966456;28;19981;-77
2024/01/19 06:54:09;;;;;;;;;;;;;;;-144.99;100.00;52627.47;4966027;28;19977;-75
2024/01/19 06:56:35;;;;;;;;;;;;;;;-144.99;100.00;52615.25;4966809;28;20481;-76
2024/01/19 06:59:03;;;;;;;;;;;;;;;-144.99;100.00;52649.88;4974851;28;20323;-76
2024/01/19 07:01:30;;;;;;;;;;;;;;;-144.99;100.00;52623.38;4960761;28;19930;-75
2024/01/19 07:03:56;;;;;;;;;;;;;;;-144.99;100.00;52609.13;4967454;28;20020;-76
2024/01/19 07:06:22;;;;;;;;;;;;;;;-144.99;100.00;52578.53;4965633;28;19937;-76
2024/01/19 07:08:49;;;;;;;;;;;;;;;-144.99;100.00;52578.53;4967525;28;20381;-77
2024/01/19 07:11:15;;;;;;;;;;;;;;;-144.99;100.00;52603.00;4967861;28;19930;-74
2024/01/19 07:13:42;;;;;;;;;;;;;;;-144.99;100.00;52635.63;4968184;28;19965;-74
2024/01/19 07:16:10;;;;;;;;;;;;;;;-144.99;100.00;52613.19;4964539;28;19981;-75
2024/01/19 07:18:37;;;;;;;;;;;;;;;-144.99;100.00;52600.97;4963931;28;20236;-74
2024/01/19 07:21:03;;;;;;;;;;;;;;;-144.99;100.00;52615.25;4967139;28;19965;-75
2024/01/19 07:23:30;;;;;;;;;;;;;;;-144.99;100.00;52582.63;4961647;28;20037;-75
2024/01/19 07:25:56;;;;;;;;;;;;;;;-144.99;100.00;52623.38;4964100;28;20032;-75
2024/01/19 07:28:23;;;;;;;;;;;;;;;-144.99;100.00;52668.22;4965411;28;19930;-76
2024/01/19 07:30:49;;;;;;;;;;;;;;;-144.99;100.00;52615.25;4966695;28;20362;-75
2024/01/19 07:33:17;;;;;;;;;;;;;;;-144.99;100.00;52607.09;4967034;28;20013;-74
2024/01/19 07:35:44;;;;;;;;;;;;;;;-144.99;100.00;52590.78;4967419;28;19930;-76
2024/01/19 07:38:10;;;;;;;;;;;;;;;-144.99;100.00;52603.00;4957195;28;19934;-75
2024/01/19 07:40:37;;;;;;;;;;;;;;;-144.99;100.00;52617.28;4962430;28;19949;-76
2024/01/19 07:43:03;;;;;;;;;;;;;;;-144.99;100.00;52611.16;4967814;28;20009;-76
2024/01/19 07:45:30;;;;;;;;;;;;;;;-144.99;100.00;52598.94;4960926;28;19936;-74
2024/01/19 07:47:56;;;;;;;;;;;;;;;-144.99;100.00;52594.84;4965183;28;19940;-74
2024/01/19 07:50:25;;;;;;;;;;;;;;;-144.99;100.00;52615.25;4965059;28;20251;-74
2024/01/19 07:52:51;;;;;;;;;;;;;;;-144.99;100.00;52615.25;4968040;28;19930;-76
2024/01/19 07:55:20;;;;;;;;;;;;;;;-144.99;100.00;52586.69;4970830;28;19933;-76
2024/01/19 07:57:46;;;;;;;;;;;;;;;-144.99;100.00;52615.25;4970522;28;20243;-75
2024/01/19 08:00:13;;;;;;;;;;;;;;;-144.99;100.00;52615.25;4969009;28;19990;-75
2024/01/19 08:02:40;;;;;;;;;;;;;;;-144.99;100.00;52611.16;4969218;28;19961;-76
2024/01/19 08:05:06;;;;;;;;;;;;;;;-144.99;100.00;52613.19;4970027;28;20386;-75
2024/01/19 08:07:34;;;;;;;;;;;;;;;-144.99;100.00;52639.69;4627917;28;10000453;-76
2024/01/19 08:10:02;;;;;;;;;;;;;;;-144.99;100.00;52631.53;4970516;28;20019;-74
2024/01/19 08:12:28;;;;;;;;;;;;;;;-144.99;100.00;52562.25;4966717;28;19926;-75
2024/01/19 08:14:57;;;;;;;;;;;;;;;-144.99;100.00;52562.25;4972444;28;19992;-74
2024/01/19 08:17:23;;;;;;;;;;;;;;;-144.99;100.00;52613.19;4970776;28;20335;-74
2024/01/19 08:19:49;;;;;;;;;;;;;;;-144.99;100.00;52562.25;4969428;28;20401;-75
2024/01/19 08:22:16;;;;;;;;;;;;;;;-144.99;100.00;52578.53;4971126;28;19965;-77
2024/01/19 08:24:44;;;;;;;;;;;;;;;-144.99;100.00;52598.94;4969919;28;19934;-76
2024/01/19 08:27:10;;;;;;;;;;;;;;;-144.99;100.00;52607.09;4969718;28;20037;-78
2024/01/19 08:29:37;;;;;;;;;;;;;;;-144.99;100.00;52586.69;4973707;28;19944;-75
2024/01/19 08:32:03;;;;;;;;;;;;;;;-144.99;100.00;52588.75;4968958;28;19988;-74
2024/01/19 08:34:30;;;;;;;;;;;;;;;-144.99;100.00;52600.97;4970942;28;20016;-75
2024/01/19 08:36:56;;;;;;;;;;;;;;;-144.99;100.00;52568.34;4972752;28;20442;-74
2024/01/19 08:39:22;;;;;;;;;;;;;;;-144.99;100.00;52578.53;4972191;28;20165;-77
2024/01/19 08:41:50;;;;;;;;;;;;;;;-144.99;100.00;52596.88;4972864;28;19933;-77
2024/01/19 08:44:17;;;;;;;;;;;;;;;-144.99;100.00;52609.13;4968628;28;20021;-74
2024/01/19 08:46:44;;;;;;;;;;;;;;;-144.99;100.00;52596.88;4966432;28;20025;-75
2024/01/19 08:49:10;;;;;;;;;;;;;;;-144.99;100.00;52584.66;4966358;28;19926;-75
2024/01/19 08:51:37;;;;;;;;;;;;;;;-144.99;100.00;52615.25;4973665;28;19926;-74
2024/01/19 08:54:04;;;;;;;;;;;;;;;-144.99;100.00;52594.84;4970156;28;19969;-75
2024/01/19 08:56:31;;;;;;;;;;;;;;;-144.99;100.00;52582.63;4971337;28;19926;-75
2024/01/19 08:58:59;;;;;;;;;;;;;;;-144.99;100.00;52582.63;4970718;28;19926;-74
2024/01/19 09:01:26;;;;;;;;;;;;;;;-144.99;100.00;52582.63;4972172;28;19936;-76
2024/01/19 09:03:52;;;;;;;;;;;;;;;-144.99;100.00;52582.63;4970423;28;19926;-77
2024/01/19 09:06:19;;;;;;;;;;;;;;;-144.99;100.00;52633.59;4968353;28;19930;-74
2024/01/19 09:08:45;;;;;;;;;;;;;;;-144.99;100.00;52578.53;4971404;28;19973;-73
2024/01/19 09:11:12;;;;;;;;;;;;;;;-144.99;100.00;52594.84;4971348;28;19969;-77
2024/01/19 09:13:39;;;;;;;;;;;;;;;-144.99;100.00;52611.16;4971334;28;19969;-73
2024/01/19 09:16:08;;;;;;;;;;;;;;;-144.99;100.00;52578.53;4966975;28;19969;-77
2024/01/19 09:18:35;;;;;;;;;;;;;;;-144.99;100.00;52598.94;4969047;28;19942;-74
2024/01/19 09:21:01;;;;;;;;;;;;;;;-144.99;100.00;52586.69;4971575;28;20071;-74
2024/01/19 09:23:28;;;;;;;;;;;;;;;-144.99;100.00;52594.84;4972986;28;19977;-75
2024/01/19 09:25:54;;;;;;;;;;;;;;;-144.99;100.00;52619.31;4968850;28;20385;-76
2024/01/19 09:28:20;;;;;;;;;;;;;;;-144.99;100.00;52552.03;4970718;28;20389;-74
2024/01/19 09:30:48;;;;;;;;;;;;;;;-144.99;100.00;52611.16;4970125;28;19930;-75
2024/01/19 09:33:15;;;;;;;;;;;;;;;-144.99;100.00;52523.50;4969552;28;20287;-73
2024/01/19 09:35:42;;;;;;;;;;;;;;;-144.99;100.00;52578.53;4968862;28;19966;-75
2024/01/19 09:38:08;;;;;;;;;;;;;;;-144.99;100.00;52558.16;4967077;28;20100;-75
2024/01/19 09:40:35;;;;;;;;;;;;;;;-144.99;100.00;52552.03;4969300;28;19934;-74
2024/01/19 09:43:02;;;;;;;;;;;;;;;-144.99;100.00;52545.94;4969540;28;19961;-76
2024/01/19 09:45:36;;;;;;;;;;;;;;;-144.99;100.00;52603.00;4969643;28;19988;-73
2024/01/19 09:48:04;;;;;;;;;;;;;;;-144.99;100.00;52554.09;4968285;28;20001;-74
2024/01/19 09:50:34;;;;;;;;;;;;;;;-144.99;100.00;52560.19;4960630;28;19941;-75
2024/01/19 09:53:01;;;;;;;;;;;;;;;-144.99;100.00;52560.19;4967055;28;20420;-74
2024/01/19 09:55:28;;;;;;;;;;;;;;;-144.99;98.54;52554.09;4968649;28;19930;-75
2024/01/19 09:57:56;;;;;;;;;;;;;;;-144.99;98.23;52570.38;4967208;28;20139;-74
2024/01/19 10:00:23;;;;;;;;;;;;;;;-144.99;95.14;52550.00;4966524;28;19965;-73
2024/01/19 10:02:50;;;;;;;;;;;;;;;-144.99;93.91;52521.47;4968077;28;19926;-74
2024/01/19 10:05:17;;;;;;;;;;;;;;;-144.99;92.11;52545.94;4959757;28;20006;-75
2024/01/19 10:07:46;;;;;;;;;;;;;;;-144.99;90.65;52545.94;4968309;28;20028;-75
2024/01/19 10:10:12;;;;;;;;;;;;;;;-144.99;90.44;52554.09;4966135;28;19934;-76
2024/01/19 10:12:39;;;;;;;;;;;;;;;-144.99;90.60;52550.00;4969129;28;19926;-76
2024/01/19 10:15:07;;;;;;;;;;;;;;;-144.99;88.71;52570.38;4968731;28;20001;-77
2024/01/19 10:17:35;;;;;;;;;;;;;;;-144.99;85.54;52541.84;4968648;28;20426;-75
2024/01/19 10:20:02;;;;;;;;;;;;;;;-144.99;83.84;52509.25;4964572;28;19926;-74
2024/01/19 10:22:29;;;;;;;;;;;;;;;-144.99;83.25;52505.16;4965179;28;20057;-76
2024/01/19 10:25:01;;;;;;;;;;;;;;;-144.99;83.22;52505.16;4970017;28;19938;-75
2024/01/19 10:27:45;;;;;;;;;;;;;;;-144.99;81.85;52509.25;4968357;28;19952;-75
2024/01/19 10:30:12;;;;;;;;;;;;;;;-144.99;79.44;52499.06;4961393;28;20252;-74
2024/01/19 10:32:39;;;;;;;;;;;;;;;-144.99;78.27;52480.72;4966704;28;19930;-76
2024/01/19 10:35:07;;;;;;;;;;;;;;;-144.99;78.35;52509.25;4967692;28;20371;-76
2024/01/19 10:37:33;;;;;;;;;;;;;;;-144.99;79.27;52501.09;4969399;28;20016;-74
2024/01/19 10:40:13;;;;;;;;;;;;;;;-144.99;79.01;52525.56;4969567;28;19957;-75
2024/01/19 10:42:39;;;;;;;;;;;;;;;-144.99;76.55;52517.41;4965057;28;20016;-75
2024/01/19 10:45:14;;;;;;;;;;;;;;;-144.99;78.96;52531.66;4969880;28;20347;-77
2024/01/19 10:47:43;;;;;;;;;;;;;;;-144.99;80.96;52529.63;4970008;28;20394;-75
2024/01/19 10:50:11;;;;;;;;;;;;;;;-144.99;81.03;52582.63;4969731;28;20054;-76
2024/01/19 10:52:38;;;;;;;;;;;;;;;-144.99;81.22;52590.78;4962543;28;20178;-76
2024/01/19 10:55:05;;;;;;;;;;;;;;;-144.99;85.10;52580.59;4967893;28;19938;-75
2024/01/19 10:57:33;;;;;;;;;;;;;;;-144.99;88.70;52598.94;4966776;28;20093;-76
2024/01/19 10:59:59;;;;;;;;;;;;;;;-144.99;92.24;52615.25;4967594;28;20287;-75
2024/01/19 11:02:26;;;;;;;;;;;;;;;-144.99;95.14;52590.78;4967682;28;19958;-73
2024/01/19 11:04:52;;;;;;;;;;;;;;;-144.99;97.36;52562.25;4963648;28;20037;-77
2024/01/19 11:07:19;;;;;;;;;;;;;;;-144.99;99.09;52588.75;4966360;28;20017;-74
2024/01/19 11:09:45;;;;;;;;;;;;;;;-144.99;100.00;52615.25;4963183;28;20033;-71
2024/01/19 11:12:12;;;;;;;;;;;;;;;-144.99;100.00;52590.78;4967361;28;19938;-76
2024/01/19 11:14:44;;;;;;;;;;;;;;;-144.99;100.00;52600.97;4963835;28;19926;-74
2024/01/19 11:17:11;;;;;;;;;;;;;;;-144.99;100.00;52584.66;4958953;28;19926;-75
2024/01/19 11:19:38;;;;;;;;;;;;;;;-144.99;100.00;52615.25;4967229;28;19934;-74
2024/01/19 11:22:05;;;;;;;;;;;;;;;-144.99;100.00;52623.38;4966015;28;19933;-74
2024/01/19 11:24:37;;;;;;;;;;;;;;;-144.99;100.00;52623.38;4966732;28;20031;-75
2024/01/19 11:27:07;;;;;;;;;;;;;;;-144.99;100.00;52590.78;4963815;28;20319;-75
2024/01/19 11:29:35;;;;;;;;;;;;;;;-144.99;100.00;52611.16;4970644;28;20028;-73
2024/01/19 11:32:04;;;;;;;;;;;;;;;-144.99;100.00;52566.31;4969653;28;20366;-75
2024/01/19 11:34:43;;;;;;;;;;;;;;;-144.99;100.00;52578.53;4970933;28;19930;-75
2024/01/19 11:37:10;;;;;;;;;;;;;;;-144.99;100.00;52607.09;4965628;28;20029;-75
2024/01/19 11:39:40;;;;;;;;;;;;;;;-144.99;100.00;52578.53;4970198;28;20012;-74
2024/01/19 11:42:07;;;;;;;;;;;;;;;-144.99;100.00;52603.00;4967616;28;20394;-75
2024/01/19 11:44:44;;;;;;;;;;;;;;;-144.99;100.00;52611.16;4969180;28;20250;-74
2024/01/19 11:47:38;;;;;;;;;;;;;;;-144.99;100.00;52594.84;4965583;28;19926;-73
2024/01/19 11:50:05;;;;;;;;;;;;;;;-144.99;100.00;52574.47;4969143;28;19937;-78
2024/01/19 11:52:44;;;;;;;;;;;;;;;-144.99;100.00;52578.53;4968318;28;19926;-76
2024/01/19 11:55:29;;;;;;;;;;;;;;;-144.99;100.00;52623.38;4968357;28;19929;-76
2024/01/19 11:57:55;;;;;;;;;;;;;;;-144.99;100.00;52582.63;4962835;28;19953;-73
2024/01/19 12:00:22;;;;;;;;;;;;;;;-144.99;100.00;52566.31;4958151;28;20003;-74
2024/01/19 12:02:49;;;;;;;;;;;;;;;-144.99;100.00;52645.81;4969926;28;20037;-75
2024/01/19 12:05:20;;;;;;;;;;;;;;;-144.99;100.00;52586.69;4963133;28;20013;-74
2024/01/19 12:07:47;;;;;;;;;;;;;;;-144.99;100.00;52607.09;4966341;28;19926;-72
2024/01/19 12:10:15;;;;;;;;;;;;;;;-144.99;100.00;52603.00;4967178;28;20021;-76
2024/01/19 12:12:41;;;;;;;;;;;;;;;-144.99;100.00;52582.63;4626093;28;10000438;-77
2024/01/19 12:15:09;;;;;;;;;;;;;;;-144.99;100.00;52607.09;4969418;28;20017;-76
2024/01/19 12:17:37;;;;;;;;;;;;;;;-144.99;100.00;52572.44;4964525;28;20006;-77